createdAt,value
2019-05-21T00:01:01.821Z,36.07
2019-05-21T00:03:30.495Z,35.43
2019-05-21T00:05:59.189Z,37.70
2019-05-21T00:08:27.856Z,36.43
2019-05-21T00:10:56.476Z,35.30
2019-05-21T00:13:25.164Z,34.90
2019-05-21T00:15:53.836Z,35.07
2019-05-21T00:18:22.526Z,35.03
2019-05-21T00:20:51.658Z,33.33
2019-05-21T00:23:20.284Z,32.93
2019-05-21T00:25:48.917Z,32.97
2019-05-21T00:28:29.447Z,31.70
2019-05-21T00:31:34.309Z,32.10
2019-05-21T00:34:44.010Z,29.70
2019-05-21T00:37:46.034Z,29.93
2019-05-21T00:40:50.761Z,29.17
2019-05-21T00:43:25.207Z,29.40
2019-05-21T00:45:53.894Z,28.53
2019-05-21T00:48:22.571Z,28.10
2019-05-21T00:50:51.259Z,25.90
2019-05-21T00:53:20.052Z,24.17
2019-05-21T00:55:49.813Z,22.77
2019-05-21T00:58:18.645Z,23.90
2019-05-21T01:00:47.333Z,23.10
2019-05-21T01:03:16.015Z,23.83
2019-05-21T01:05:44.827Z,23.03
2019-05-21T01:08:13.450Z,21.27
2019-05-21T01:10:42.123Z,21.03
2019-05-21T01:13:10.744Z,21.67
2019-05-21T01:15:39.401Z,20.60
2019-05-21T01:18:08.201Z,19.43
2019-05-21T01:20:36.860Z,21.17
2019-05-21T01:23:05.681Z,20.03
2019-05-21T01:25:34.319Z,19.37
2019-05-21T01:28:02.994Z,19.10
2019-05-21T01:30:31.736Z,19.67
2019-05-21T01:33:00.375Z,18.93
2019-05-21T01:35:29.039Z,20.33
2019-05-21T01:37:57.681Z,20.63
2019-05-21T01:40:26.368Z,21.43
2019-05-21T01:42:54.989Z,20.13
2019-05-21T01:45:23.683Z,21.90
2019-05-21T01:47:52.339Z,20.67
2019-05-21T01:50:21.014Z,22.17
2019-05-21T01:52:49.783Z,22.27
2019-05-21T01:55:18.547Z,23.20
2019-05-21T01:57:47.231Z,24.30
2019-05-21T02:00:16.383Z,25.03
2019-05-21T02:02:45.067Z,26.00
2019-05-21T02:05:13.882Z,26.17
2019-05-21T02:07:42.572Z,26.50
2019-05-21T02:10:11.373Z,26.97
2019-05-21T02:12:40.051Z,29.50
2019-05-21T02:15:08.895Z,30.67
2019-05-21T02:17:37.555Z,29.73
2019-05-21T02:20:06.614Z,29.17
2019-05-21T02:22:35.368Z,29.77
2019-05-21T02:25:06.288Z,31.77
2019-05-21T02:27:35.058Z,32.80
2019-05-21T02:30:05.004Z,34.07
2019-05-21T02:32:34.227Z,35.60
2019-05-21T02:35:02.990Z,38.80
2019-05-21T02:37:31.694Z,37.47
2019-05-21T02:40:00.447Z,37.60
2019-05-21T02:42:29.227Z,38.43
2019-05-21T02:44:58.168Z,38.73
2019-05-21T02:47:26.997Z,41.17
2019-05-21T02:49:55.698Z,40.80
2019-05-21T02:52:24.466Z,39.60
2019-05-21T02:54:53.869Z,39.27
2019-05-21T02:57:24.256Z,39.30
2019-05-21T02:59:55.265Z,39.30
2019-05-21T03:02:28.733Z,38.47
2019-05-21T03:04:57.437Z,37.97
2019-05-21T03:07:26.302Z,37.53
2019-05-21T03:09:55.144Z,38.27
2019-05-21T03:12:23.785Z,37.73
2019-05-21T03:14:52.540Z,36.83
2019-05-21T03:17:21.252Z,36.27
2019-05-21T03:19:50.011Z,37.27
2019-05-21T03:22:18.704Z,35.47
2019-05-21T03:24:47.555Z,35.10
2019-05-21T03:27:16.271Z,34.77
2019-05-21T03:29:45.106Z,34.70
2019-05-21T03:32:13.733Z,34.13
2019-05-21T03:34:42.490Z,32.27
2019-05-21T03:37:11.259Z,32.60
2019-05-21T03:39:39.951Z,32.77
2019-05-21T03:42:08.707Z,32.20
2019-05-21T03:44:37.541Z,31.43
2019-05-21T03:47:06.294Z,29.17
2019-05-21T03:49:34.938Z,28.40
2019-05-21T03:52:03.702Z,28.53
2019-05-21T03:54:32.465Z,27.13
2019-05-21T03:57:01.297Z,26.70
2019-05-21T03:59:30.060Z,26.50
2019-05-21T04:01:58.691Z,25.77
2019-05-21T04:04:27.458Z,25.20
2019-05-21T04:06:56.385Z,25.93
2019-05-21T04:09:25.074Z,26.10
2019-05-21T04:11:53.794Z,24.83
2019-05-21T04:14:33.480Z,25.97
2019-05-21T04:17:20.184Z,25.70
2019-05-21T04:19:50.065Z,26.13
2019-05-21T04:22:19.255Z,24.93
2019-05-21T04:24:48.026Z,25.80
2019-05-21T04:27:16.793Z,25.13
2019-05-21T04:29:45.483Z,25.37
2019-05-21T04:32:14.111Z,26.13
2019-05-21T04:34:42.809Z,25.97
2019-05-21T04:37:12.136Z,26.20
2019-05-21T04:39:41.317Z,26.77
2019-05-21T04:42:10.233Z,26.13
2019-05-21T04:44:39.001Z,25.93
2019-05-21T04:47:07.832Z,26.07
2019-05-21T04:49:36.599Z,26.23
2019-05-21T04:52:05.424Z,25.43
2019-05-21T04:54:34.214Z,24.27
2019-05-21T04:57:02.963Z,26.33
2019-05-21T04:59:31.660Z,24.80
2019-05-21T05:02:00.422Z,25.97
2019-05-21T05:04:29.193Z,26.03
2019-05-21T05:06:57.914Z,26.07
2019-05-21T05:09:26.683Z,25.47
2019-05-21T05:11:55.426Z,23.93
2019-05-21T05:14:24.190Z,23.67
2019-05-21T05:16:52.961Z,23.23
2019-05-21T05:19:21.725Z,24.73
2019-05-21T05:21:50.422Z,23.67
2019-05-21T05:24:19.263Z,22.13
2019-05-21T05:26:47.971Z,21.83
2019-05-21T05:29:16.682Z,22.43
2019-05-21T05:31:45.470Z,20.23
2019-05-21T05:34:14.171Z,21.47
2019-05-21T05:36:42.929Z,19.37
2019-05-21T05:39:11.716Z,19.67
2019-05-21T05:41:40.451Z,19.83
2019-05-21T05:44:09.230Z,19.97
2019-05-21T05:46:38.096Z,19.10
2019-05-21T05:49:08.539Z,19.93
2019-05-21T05:51:37.227Z,20.80
2019-05-21T05:54:07.769Z,19.50
2019-05-21T05:56:36.424Z,20.37
2019-05-21T05:59:05.389Z,19.27
2019-05-21T06:01:34.994Z,18.63
2019-05-21T06:04:03.699Z,18.50
2019-05-21T06:06:32.530Z,19.30
2019-05-21T06:09:01.271Z,19.40
2019-05-21T06:11:30.037Z,18.30
2019-05-21T06:13:58.889Z,18.57
2019-05-21T06:16:27.700Z,18.87
2019-05-21T06:18:56.588Z,20.10
2019-05-21T06:21:25.292Z,18.27
2019-05-21T06:23:54.082Z,19.43
2019-05-21T06:26:22.855Z,18.00
2019-05-21T06:28:51.669Z,18.67
2019-05-21T06:31:20.442Z,17.67
2019-05-21T06:33:49.260Z,18.33
2019-05-21T06:36:17.934Z,18.77
2019-05-21T06:38:46.750Z,17.53
2019-05-21T06:41:15.464Z,17.83
2019-05-21T06:43:44.216Z,17.63
2019-05-21T06:46:13.002Z,18.50
2019-05-21T06:48:41.711Z,16.57
2019-05-21T06:51:10.410Z,16.83
2019-05-21T06:53:39.173Z,16.70
2019-05-21T06:56:08.022Z,16.97
2019-05-21T06:58:36.793Z,16.07
2019-05-21T07:01:05.613Z,16.53
2019-05-21T07:03:34.256Z,15.87
2019-05-21T07:06:03.020Z,15.77
2019-05-21T07:08:34.924Z,16.20
2019-05-21T07:11:02.309Z,16.30
2019-05-21T07:13:31.283Z,15.43
2019-05-21T07:16:00.159Z,15.50
2019-05-21T07:18:28.886Z,15.10
2019-05-21T07:21:02.473Z,15.57
2019-05-21T07:23:30.867Z,15.77
2019-05-21T07:25:59.492Z,15.43
2019-05-21T07:28:28.411Z,16.20
2019-05-21T07:30:57.032Z,16.30
2019-05-21T07:33:25.700Z,15.60
2019-05-21T07:35:54.391Z,17.03
2019-05-21T07:38:23.072Z,16.00
2019-05-21T07:40:51.845Z,15.97
2019-05-21T07:43:20.548Z,16.63
2019-05-21T07:45:49.222Z,15.53
2019-05-21T07:48:17.846Z,15.50
2019-05-21T07:50:46.616Z,15.43
2019-05-21T07:53:15.303Z,15.53
2019-05-21T07:55:43.948Z,15.53
2019-05-21T07:58:12.719Z,14.83
2019-05-21T08:00:41.409Z,14.83
2019-05-21T08:03:10.101Z,15.10
2019-05-21T08:05:38.919Z,14.83
2019-05-21T08:08:07.620Z,14.40
2019-05-21T08:10:36.398Z,13.77
2019-05-21T08:13:05.237Z,14.03
2019-05-21T08:15:34.001Z,14.00
2019-05-21T08:18:02.629Z,13.63
2019-05-21T08:20:31.438Z,13.80
2019-05-21T08:23:00.088Z,13.23
2019-05-21T08:25:28.808Z,13.43
2019-05-21T08:27:57.575Z,12.67
2019-05-21T08:30:26.336Z,13.10
2019-05-21T08:32:55.024Z,13.17
2019-05-21T08:35:23.703Z,13.20
2019-05-21T08:37:52.329Z,12.93
2019-05-21T08:40:21.270Z,12.37
2019-05-21T08:42:50.027Z,12.87
2019-05-21T08:45:20.257Z,12.70
2019-05-21T08:47:48.896Z,12.03
2019-05-21T08:50:18.887Z,11.83
2019-05-21T08:52:47.587Z,12.40
2019-05-21T08:55:18.238Z,12.43
2019-05-21T08:58:05.050Z,11.80
2019-05-21T09:00:19.946Z,11.33
2019-05-21T21:32:06.030Z,21.43
2019-05-21T21:34:35.835Z,21.70
2019-05-21T21:37:07.216Z,22.13
2019-05-21T21:39:38.358Z,21.90
2019-05-21T21:42:19.496Z,23.63
2019-05-21T21:45:01.448Z,21.87
2019-05-21T21:47:43.145Z,22.10
2019-05-21T21:50:22.086Z,22.77
2019-05-21T21:53:03.615Z,24.03
2019-05-21T21:55:43.910Z,23.13
2019-05-21T21:58:25.865Z,23.57
2019-05-21T22:01:28.185Z,23.83
2019-05-21T22:04:08.865Z,23.50
2019-05-21T22:06:50.466Z,23.23
2019-05-21T22:09:34.535Z,24.57
2019-05-21T22:12:16.297Z,23.60
2019-05-21T22:14:56.947Z,24.17
2019-05-21T22:17:36.655Z,24.13
2019-05-21T22:20:15.995Z,24.07
2019-05-21T22:22:55.974Z,23.57
2019-05-21T22:25:36.276Z,25.03
2019-05-21T22:28:17.628Z,23.20
2019-05-21T22:30:58.527Z,22.83
2019-05-21T22:33:39.555Z,23.40
2019-05-21T22:36:17.397Z,23.57
2019-05-21T22:38:58.726Z,23.60
2019-05-21T22:41:29.183Z,23.30
2019-05-21T22:44:10.452Z,23.87
2019-05-21T22:46:40.856Z,24.43
2019-05-21T22:49:11.043Z,22.90
2019-05-21T22:51:40.793Z,24.67
2019-05-21T22:54:10.293Z,24.87
2019-05-21T22:56:39.735Z,24.83
2019-05-21T22:59:09.484Z,23.77
2019-05-21T23:01:39.064Z,24.80
2019-05-21T23:04:08.595Z,24.73
2019-05-21T23:06:37.908Z,24.00
2019-05-21T23:09:08.156Z,23.37
2019-05-21T23:11:37.569Z,22.83
2019-05-21T23:14:07.759Z,23.70
2019-05-21T23:16:37.238Z,22.87
2019-05-21T23:19:09.225Z,23.17
2019-05-21T23:21:38.517Z,24.00
2019-05-21T23:24:10.338Z,21.77
2019-05-21T23:26:39.905Z,21.27
2019-05-21T23:29:10.167Z,21.53
2019-05-21T23:31:40.024Z,22.03
2019-05-21T23:34:10.729Z,22.17
2019-05-21T23:36:41.885Z,22.23
2019-05-21T23:39:13.602Z,22.03
2019-05-21T23:41:44.692Z,21.97
2019-05-21T23:44:15.005Z,21.40
2019-05-21T23:46:45.568Z,21.60
2019-05-21T23:49:16.283Z,21.07
2019-05-21T23:51:46.016Z,21.63
2019-05-21T23:54:16.189Z,20.87
2019-05-21T23:56:46.664Z,21.33
2019-05-21T23:59:16.423Z,21.47
